Time;durP1;ratioP1;P1;durP2;ratioP2;P2;SDS_P1;SDS_P2;PMS_P1;PMS_P2;Temp;Humidity;BMP_temperature;BMP_pressure;BME280_temperature;BME280_humidity;BME280_pressure;Samples;Min_cycle;Max_cycle;Signal;HPM_P1;HPM_P2
2021/12/08 00:01:42;;;;;;;;;1.00;1.00;;;;;7.25;67.96;98973.03;5015102;28;45512;-56
2021/12/08 00:04:07;;;;;;;;;1.50;1.00;;;;;7.27;68.95;98996.25;5014899;28;45380;-57
2021/12/08 00:06:33;;;;;;;;;0.50;0.00;;;;;7.25;69.39;98986.66;5014813;28;45943;-61
2021/12/08 00:09:06;;;;;;;;;3.00;3.00;;;;;7.22;68.60;98982.50;5014781;28;45369;-50
2021/12/08 00:14:16;;;;;;;;;1.40;1.00;;;;;7.16;68.93;98988.91;5008940;28;45476;-57
2021/12/08 00:16:42;;;;;;;;;3.00;1.00;;;;;6.98;69.39;98957.06;5000121;28;46482;-52
2021/12/08 00:19:07;;;;;;;;;1.50;1.50;;;;;7.11;69.34;98989.59;5029750;28;45497;-60
2021/12/08 00:21:33;;;;;;;;;2.50;2.00;;;;;7.12;69.47;98985.81;5013024;28;45462;-56
2021/12/08 00:23:58;;;;;;;;;1.50;0.00;;;;;7.10;69.53;98979.72;5014942;28;45567;-59
2021/12/08 00:26:24;;;;;;;;;4.00;1.50;;;;;7.07;69.72;98969.28;5029694;28;45705;-53
2021/12/08 00:28:49;;;;;;;;;1.00;0.00;;;;;7.04;69.60;98967.00;5014534;28;45261;-55
2021/12/08 00:31:15;;;;;;;;;3.00;1.25;;;;;6.94;69.27;98967.56;5030254;28;45429;-57
2021/12/08 00:33:40;;;;;;;;;0.00;0.00;;;;;6.98;69.03;98968.78;5014992;28;45807;-59
2021/12/08 00:36:09;;;;;;;;;0.50;0.50;;;;;6.97;69.21;98975.31;5014848;28;45696;-58
2021/12/08 00:38:35;;;;;;;;;2.40;1.00;;;;;6.91;69.07;98960.72;5018014;28;45544;-61
2021/12/08 00:41:00;;;;;;;;;2.75;1.00;;;;;6.93;69.35;98965.91;5017132;28;45495;-53
2021/12/08 00:43:26;;;;;;;;;2.75;0.00;;;;;6.89;69.10;98975.63;5018210;28;45472;-57
2021/12/08 00:45:51;;;;;;;;;0.00;0.00;;;;;6.81;67.85;98970.47;5032907;28;46125;-53
2021/12/08 00:48:17;;;;;;;;;2.00;0.00;;;;;6.83;68.84;98976.56;5033204;28;45370;-56
2021/12/08 00:50:43;;;;;;;;;0.50;0.50;;;;;6.68;69.00;98968.78;5018099;28;45476;-57
2021/12/08 00:53:09;;;;;;;;;0.00;0.00;;;;;6.75;68.23;99000.34;5018150;28;45419;-60
2021/12/08 00:55:35;;;;;;;;;0.25;0.00;;;;;6.78;68.74;99012.69;5017565;28;45921;-57
2021/12/08 00:58:00;;;;;;;;;0.00;0.00;;;;;6.72;67.34;99014.44;5032745;28;45522;-57
2021/12/08 01:00:39;;;;;;;;;1.00;1.00;;;;;6.69;68.74;99006.72;5016889;28;45441;-56
2021/12/08 01:03:08;;;;;;;;;2.40;0.80;;;;;6.45;68.52;98981.22;5032636;28;45398;-59
2021/12/08 01:05:37;;;;;;;;;1.00;1.00;;;;;6.64;68.02;99015.59;5017068;28;46189;-56
2021/12/08 01:08:03;;;;;;;;;0.00;0.00;;;;;6.63;68.34;99015.81;5017196;28;45467;-61
2021/12/08 01:10:28;;;;;;;;;0.00;0.00;;;;;6.63;68.65;99015.81;5017327;28;45349;-53
2021/12/08 01:12:54;;;;;;;;;0.00;0.00;;;;;6.56;68.19;99006.88;5016242;28;45352;-55
2021/12/08 01:15:20;;;;;;;;;0.00;0.00;;;;;6.59;68.35;99015.44;5032263;28;46469;-58
2021/12/08 01:17:46;;;;;;;;;0.00;0.00;;;;;6.54;67.53;98996.22;5016749;28;45712;-58
2021/12/08 01:20:13;;;;;;;;;0.00;0.00;;;;;6.57;67.80;99005.81;5015646;28;45462;-56
2021/12/08 01:22:38;;;;;;;;;0.60;0.00;;;;;6.50;67.17;99011.34;4999433;28;45614;-50
2021/12/08 01:25:04;;;;;;;;;0.00;0.00;;;;;6.46;67.98;99004.69;5015782;28;45462;-59
2021/12/08 01:27:32;;;;;;;;;0.00;0.00;;;;;6.46;68.41;98991.06;5015644;28;45515;-56
2021/12/08 01:29:57;;;;;;;;;1.00;1.00;;;;;6.46;68.23;98974.72;5017102;28;45312;-54
2021/12/08 01:32:23;;;;;;;;;0.00;0.00;;;;;6.48;67.67;98986.22;4999390;28;45366;-56
2021/12/08 01:34:49;;;;;;;;;1.00;0.00;;;;;6.46;67.10;98982.91;5016877;28;45357;-59
2021/12/08 01:37:14;;;;;;;;;0.00;0.00;;;;;6.44;68.12;98982.28;5015522;28;45487;-59
2021/12/08 01:39:40;;;;;;;;;1.50;0.00;;;;;6.48;69.01;98992.50;5017104;28;45321;-57
2021/12/08 01:42:14;;;;;;;;;0.00;0.00;;;;;6.49;67.98;98991.44;5016889;28;45285;-56
2021/12/08 01:47:24;;;;;;;;;3.40;0.80;;;;;6.50;68.29;98997.72;5015318;28;45435;-55
2021/12/08 01:49:50;;;;;;;;;2.75;0.75;;;;;6.49;68.79;99001.50;4998442;28;45349;-57
2021/12/08 01:52:15;;;;;;;;;0.00;0.00;;;;;6.47;68.18;99022.72;4987666;28;45803;-59
2021/12/08 01:54:41;;;;;;;;;0.25;0.00;;;;;6.43;68.64;99026.94;5012364;28;46107;-58
2021/12/08 01:57:08;;;;;;;;;0.00;0.00;;;;;6.45;68.23;99027.56;5014798;28;45340;-60
2021/12/08 01:59:34;;;;;;;;;1.80;1.00;;;;;6.26;68.70;98994.84;5016504;28;45385;-58
2021/12/08 02:01:59;;;;;;;;;4.50;1.00;;;;;6.42;69.09;99028.84;5016139;28;45463;-56
2021/12/08 02:04:25;;;;;;;;;0.00;0.00;;;;;6.43;68.90;99024.22;5016590;28;45409;-55
2021/12/08 02:06:50;;;;;;;;;0.00;0.00;;;;;6.43;69.34;99021.50;5016621;28;45720;-58
2021/12/08 02:09:16;;;;;;;;;0.00;0.00;;;;;6.26;69.22;99002.19;5016300;28;45378;-57
2021/12/08 02:11:45;;;;;;;;;1.00;0.00;;;;;6.35;68.50;99036.28;5016771;28;45311;-57
2021/12/08 02:14:11;;;;;;;;;0.00;0.00;;;;;6.35;69.26;99044.44;5016490;28;45416;-59
2021/12/08 02:16:36;;;;;;;;;2.00;0.00;;;;;6.33;68.80;99061.00;5016235;28;45834;-53
2021/12/08 02:19:02;;;;;;;;;2.00;0.00;;;;;6.31;69.73;99057.69;4999010;28;45476;-58
2021/12/08 02:21:29;;;;;;;;;2.25;0.00;;;;;6.31;69.51;99068.59;5016319;28;45524;-58
2021/12/08 02:23:56;;;;;;;;;1.40;0.00;;;;;6.29;69.63;99061.69;5016394;28;46526;-57
2021/12/08 02:26:21;;;;;;;;;0.60;0.00;;;;;6.06;69.20;99036.75;5014708;28;45268;-57
2021/12/08 02:28:47;;;;;;;;;1.25;0.75;;;;;6.26;70.10;99068.44;5015389;28;45237;-58
2021/12/08 02:31:17;;;;;;;;;0.00;0.00;;;;;5.88;69.90;99009.44;5016705;28;45307;-60
2021/12/08 02:50:06;;;;;;;;;0.00;0.00;;;;;6.14;69.72;99081.09;5016187;28;45266;-56
2021/12/08 02:52:32;;;;;;;;;1.75;0.00;;;;;6.16;69.82;99079.84;5016297;28;45438;-60
2021/12/08 02:55:02;;;;;;;;;0.75;0.75;;;;;6.16;69.22;99079.00;5016007;28;45588;-55
2021/12/08 02:57:27;;;;;;;;;3.00;0.80;;;;;6.14;69.56;99084.66;5014336;28;45450;-58
2021/12/08 02:59:53;;;;;;;;;1.00;1.00;;;;;6.06;69.32;99085.78;5014575;28;45387;-58
2021/12/08 03:02:18;;;;;;;;;2.00;0.00;;;;;6.09;69.23;99084.50;5007114;28;45398;-58
2021/12/08 03:04:45;;;;;;;;;0.00;0.00;;;;;6.10;69.03;99080.72;5011935;28;45373;-58
2021/12/08 03:07:10;;;;;;;;;1.20;1.20;;;;;6.13;69.27;99077.53;5009851;28;45379;-53
2021/12/08 03:09:36;;;;;;;;;0.25;0.00;;;;;6.09;69.47;99065.44;4994952;28;45471;-57
2021/12/08 03:12:02;;;;;;;;;0.50;0.50;;;;;6.09;68.25;99060.00;5011181;28;45958;-55
2021/12/08 03:14:29;;;;;;;;;0.00;0.00;;;;;5.82;69.27;99020.16;5014230;28;45706;-60
2021/12/08 03:16:56;;;;;;;;;0.00;0.00;;;;;6.03;68.68;99071.78;5015115;28;45264;-61
2021/12/08 03:19:24;;;;;;;;;1.80;0.00;;;;;5.44;69.44;98950.34;5012071;28;45464;-59
2021/12/08 03:21:50;;;;;;;;;0.00;0.00;;;;;6.04;69.48;99051.66;5013107;28;45894;-58
2021/12/08 03:24:27;;;;;;;;;0.00;0.00;;;;;5.94;69.63;99036.59;5015189;28;45965;-50
2021/12/08 03:29:37;;;;;;;;;4.20;1.00;;;;;6.02;67.91;99037.41;5013869;28;45331;-54
2021/12/08 03:32:10;;;;;;;;;0.00;0.00;;;;;5.97;69.12;99035.31;5015289;28;45305;-60
2021/12/08 03:34:38;;;;;;;;;0.00;0.00;;;;;5.97;68.70;99016.25;5014683;28;45489;-57
2021/12/08 03:37:06;;;;;;;;;1.40;0.00;;;;;5.94;69.27;99014.00;5014774;28;45196;-53
2021/12/08 03:39:33;;;;;;;;;3.60;0.60;;;;;5.98;69.11;99023.41;5030378;28;45402;-58
2021/12/08 03:41:58;;;;;;;;;1.20;0.60;;;;;5.93;69.40;99029.50;5014556;28;45601;-56
2021/12/08 03:44:24;;;;;;;;;1.00;1.00;;;;;5.94;69.02;99035.78;5014758;28;46365;-54
2021/12/08 03:46:52;;;;;;;;;0.00;0.00;;;;;5.92;69.38;99027.84;5029830;28;45651;-60
2021/12/08 03:49:19;;;;;;;;;1.00;1.00;;;;;5.91;69.35;99030.78;5015023;28;45393;-57
2021/12/08 03:51:44;;;;;;;;;0.00;0.00;;;;;5.83;69.40;99012.84;5015307;28;45417;-55
2021/12/08 03:54:10;;;;;;;;;0.25;0.00;;;;;5.91;69.78;99014.44;5014688;28;46674;-54
2021/12/08 03:56:35;;;;;;;;;4.00;1.00;;;;;5.92;69.38;99019.66;5014435;28;45347;-55
2021/12/08 03:59:01;;;;;;;;;1.00;1.00;;;;;5.89;69.52;99028.28;5013224;28;45388;-61
2021/12/08 04:01:27;;;;;;;;;0.20;0.00;;;;;5.88;69.15;99028.50;5013483;28;45533;-57
2021/12/08 04:03:54;;;;;;;;;0.00;0.00;;;;;5.21;69.33;98919.16;5014553;28;45738;-50
2021/12/08 04:06:33;;;;;;;;;2.00;0.80;;;;;5.90;69.64;99024.50;5014751;28;45536;-56
2021/12/08 04:09:02;;;;;;;;;0.60;0.60;;;;;5.89;70.03;99031.03;5014432;28;45386;-55
2021/12/08 04:11:28;;;;;;;;;0.40;0.40;;;;;5.91;70.06;99030.78;5013085;28;45565;-55
2021/12/08 04:14:20;;;;;;;;;2.00;2.00;;;;;5.89;69.20;99031.03;5014736;28;45601;-60
2021/12/08 04:16:49;;;;;;;;;0.00;0.00;;;;;5.69;69.87;98993.06;5012280;28;45312;-57
2021/12/08 04:19:15;;;;;;;;;1.00;0.00;;;;;5.72;69.45;99010.84;5014708;28;45382;-54
2021/12/08 04:21:41;;;;;;;;;0.20;0.00;;;;;5.83;70.32;99032.72;5013138;28;45623;-55
2021/12/08 04:24:07;;;;;;;;;0.20;0.20;;;;;5.80;70.32;99026.88;5014332;28;45827;-55
2021/12/08 04:26:49;;;;;;;;;0.25;0.00;;;;;5.62;70.11;98998.56;5013296;28;45410;-59
2021/12/08 04:29:15;;;;;;;;;0.00;0.00;;;;;5.63;70.08;98992.06;5014412;28;45444;-59
2021/12/08 04:31:42;;;;;;;;;1.00;1.00;;;;;5.79;70.76;99034.25;5013285;28;45442;-56
2021/12/08 04:34:13;;;;;;;;;0.00;0.00;;;;;5.80;70.04;99035.06;5014021;28;45835;-55
2021/12/08 04:36:43;;;;;;;;;3.40;0.00;;;;;5.81;70.38;99042.16;5013985;28;45413;-59
2021/12/08 04:39:14;;;;;;;;;1.00;1.00;;;;;5.82;69.85;99032.97;5014369;28;45386;-54
2021/12/08 04:41:45;;;;;;;;;2.20;1.00;;;;;5.80;69.88;99038.63;5029777;28;45483;-61
2021/12/08 04:52:13;;;;;;;;;2.80;1.40;;;;;5.77;69.70;99047.22;5014112;28;45479;-58
2021/12/08 05:01:09;;;;;;;;;0.40;0.40;;;;;5.70;70.05;99073.66;5014355;28;45418;-59
2021/12/08 05:06:35;;;;;;;;;2.80;1.00;;;;;5.68;70.47;99081.22;5013713;28;45845;-52
2021/12/08 05:09:01;;;;;;;;;1.00;1.00;;;;;5.66;70.88;99088.78;5012597;28;45470;-56
2021/12/08 05:11:31;;;;;;;;;0.00;0.00;;;;;5.62;70.84;99085.69;5014138;28;45422;-60
2021/12/08 05:14:09;;;;;;;;;0.40;0.00;;;;;5.61;70.87;99091.34;5014361;28;45301;-56
2021/12/08 05:16:35;;;;;;;;;2.40;1.20;;;;;5.60;70.49;99079.59;5013929;28;45782;-58
2021/12/08 05:19:01;;;;;;;;;1.75;0.25;;;;;5.56;70.76;99081.94;5014032;28;45295;-57
2021/12/08 05:21:39;;;;;;;;;3.60;0.20;;;;;5.60;70.59;99089.69;5014069;28;45390;-54
2021/12/08 05:24:10;;;;;;;;;4.00;1.60;;;;;5.64;70.99;99097.19;4997277;28;45311;-60
2021/12/08 05:26:41;;;;;;;;;4.00;1.80;;;;;5.40;70.92;99060.69;5011698;28;46646;-55
2021/12/08 05:29:17;;;;;;;;;1.60;1.60;;;;;5.60;70.90;99103.28;5017241;28;45307;-51
2021/12/08 05:31:42;;;;;;;;;0.60;0.60;;;;;5.55;70.29;99106.66;4999356;28;45341;-55
2021/12/08 05:34:08;;;;;;;;;1.00;1.00;;;;;5.34;71.22;99086.06;5017487;28;45309;-58
2021/12/08 05:36:34;;;;;;;;;2.75;1.25;;;;;5.46;70.33;99099.81;5015603;28;48094;-60
2021/12/08 05:38:59;;;;;;;;;0.50;0.50;;;;;5.42;70.64;99100.25;5017345;28;45370;-56
2021/12/08 05:41:30;;;;;;;;;2.00;0.25;;;;;5.19;70.72;99065.44;5017112;28;45272;-53
2021/12/08 05:43:56;;;;;;;;;0.60;0.00;;;;;5.36;71.19;99090.25;5017462;28;45475;-59
2021/12/08 05:46:23;;;;;;;;;1.25;0.25;;;;;5.36;70.49;99086.66;5016566;28;45433;-52
2021/12/08 05:48:50;;;;;;;;;1.00;0.60;;;;;5.54;70.95;99118.59;4998900;28;45480;-52
2021/12/08 05:51:18;;;;;;;;;2.40;1.60;;;;;5.35;70.30;99090.44;5017085;28;45530;-56
2021/12/08 05:53:45;;;;;;;;;0.80;0.80;;;;;5.56;70.59;99119.22;5016966;28;45344;-51
2021/12/08 05:56:11;;;;;;;;;3.20;0.80;;;;;5.53;70.73;99120.50;5016866;28;45805;-55
2021/12/08 05:58:36;;;;;;;;;4.75;2.25;;;;;5.53;70.38;99108.75;5015069;28;45400;-61
2021/12/08 06:01:12;;;;;;;;;1.00;1.00;;;;;5.42;70.98;99110.28;5016988;28;45468;-58
2021/12/08 06:03:38;;;;;;;;;4.00;1.00;;;;;5.46;71.70;99119.69;5017073;28;45434;-56
2021/12/08 06:06:04;;;;;;;;;2.40;0.40;;;;;5.49;70.63;99113.81;5016563;28;45512;-57
2021/12/08 06:08:29;;;;;;;;;0.00;0.00;;;;;5.50;71.48;99104.59;5016448;28;45409;-57
2021/12/08 06:10:56;;;;;;;;;2.00;2.00;;;;;5.52;71.27;99109.81;5016516;28;45445;-61
2021/12/08 06:13:22;;;;;;;;;1.80;0.00;;;;;5.47;70.57;99104.19;5016307;28;45659;-58
2021/12/08 06:15:48;;;;;;;;;2.00;0.75;;;;;5.42;71.21;99113.84;5016757;28;46179;-55
2021/12/08 06:18:14;;;;;;;;;4.00;1.00;;;;;5.39;71.44;99095.22;5015197;28;45345;-56
2021/12/08 06:20:39;;;;;;;;;4.50;1.50;;;;;5.43;70.98;99095.63;5031921;28;45376;-59
2021/12/08 06:23:05;;;;;;;;;2.75;1.75;;;;;5.42;71.06;99104.84;5016326;28;45324;-56
2021/12/08 06:25:31;;;;;;;;;4.20;4.20;;;;;5.41;70.82;99106.72;5016196;28;45938;-56
2021/12/08 06:27:57;;;;;;;;;5.00;0.75;;;;;5.43;71.38;99101.06;5016143;28;45838;-57
2021/12/08 06:30:25;;;;;;;;;4.75;1.75;;;;;5.41;70.77;99120.31;5016337;28;45360;-61
2021/12/08 06:32:51;;;;;;;;;0.80;0.00;;;;;5.38;71.10;99125.38;5015500;28;45400;-57
2021/12/08 06:35:29;;;;;;;;;3.00;1.00;;;;;5.42;70.53;99123.91;5015876;28;45567;-54
2021/12/08 06:37:55;;;;;;;;;1.20;1.20;;;;;5.39;70.61;99132.50;5016098;28;45344;-57
2021/12/08 06:40:37;;;;;;;;;1.50;1.00;;;;;5.37;70.65;99126.44;5014913;28;45359;-58
2021/12/08 06:43:04;;;;;;;;;0.20;0.00;;;;;5.35;70.87;99136.69;5031774;28;45318;-60
2021/12/08 06:45:33;;;;;;;;;0.00;0.00;;;;;5.33;70.74;99134.19;5016184;28;45960;-58
2021/12/08 06:47:59;;;;;;;;;1.80;0.00;;;;;5.31;70.74;99135.44;5015884;28;45398;-58
2021/12/08 06:50:30;;;;;;;;;1.00;1.00;;;;;5.13;70.86;99104.38;5016533;28;45417;-59
2021/12/08 06:52:56;;;;;;;;;14.60;9.40;;;;;5.13;71.05;99094.31;5016293;28;45354;-57
2021/12/08 06:55:28;;;;;;;;;1.00;1.00;;;;;5.34;71.29;99124.16;5030995;28;48869;-57
2021/12/08 06:57:59;;;;;;;;;1.60;1.00;;;;;5.19;71.50;99094.50;5015870;28;45436;-56
2021/12/08 07:06:05;;;;;;;;;0.00;0.00;;;;;5.26;70.96;99123.34;5013815;28;46418;-55
2021/12/08 07:08:33;;;;;;;;;2.60;1.00;;;;;5.30;71.40;99115.59;5014247;28;45857;-58
2021/12/08 07:10:59;;;;;;;;;0.00;0.00;;;;;5.28;70.98;99112.22;5030577;28;45395;-55
2021/12/08 07:13:26;;;;;;;;;1.75;1.75;;;;;5.27;71.94;99111.41;4997785;28;45312;-57
2021/12/08 07:15:58;;;;;;;;;0.80;0.80;;;;;5.17;71.37;99100.16;5015262;28;46290;-58
2021/12/08 07:18:36;;;;;;;;;4.80;1.80;;;;;5.11;71.02;99112.75;4987460;28;45798;-56
2021/12/08 07:21:02;;;;;;;;;1.00;1.00;;;;;5.32;71.56;99129.00;5034522;28;45284;-57
2021/12/08 07:23:36;;;;;;;;;3.60;1.60;;;;;5.31;71.60;99127.28;5035458;28;45918;-56
2021/12/08 07:26:07;;;;;;;;;3.20;1.00;;;;;5.26;71.47;99123.34;5033428;28;47172;-56
2021/12/08 07:28:33;;;;;;;;;2.80;2.40;;;;;5.07;72.07;99119.66;5034829;28;45360;-59
2021/12/08 07:31:05;;;;;;;;;3.60;1.20;;;;;5.34;71.06;99159.53;5034962;28;45758;-57
2021/12/08 07:33:31;;;;;;;;;4.80;2.00;;;;;5.32;71.17;99159.72;5034020;28;45421;-56
2021/12/08 07:35:59;;;;;;;;;2.50;1.00;;;;;5.30;71.01;99150.97;5050089;28;45411;-59
2021/12/08 07:38:26;;;;;;;;;4.60;2.00;;;;;5.25;71.23;99145.31;5034068;28;45419;-55
2021/12/08 07:41:06;;;;;;;;;1.40;0.20;;;;;5.31;71.17;99159.94;5017466;28;45447;-57
2021/12/08 07:43:33;;;;;;;;;0.80;0.60;;;;;5.32;71.13;99178.78;5035173;28;45462;-59
2021/12/08 07:46:08;;;;;;;;;0.00;0.00;;;;;5.35;71.72;99172.06;5016349;28;45688;-56
2021/12/08 07:48:40;;;;;;;;;1.00;1.00;;;;;5.38;71.81;99185.22;5033410;28;45338;-60
2021/12/08 07:51:32;;;;;;;;;1.60;1.60;;;;;5.42;71.54;99190.06;5035222;28;45436;-52
2021/12/08 07:53:58;;;;;;;;;0.80;0.80;;;;;5.49;71.83;99181.84;5033533;28;45427;-59
2021/12/08 07:56:24;;;;;;;;;1.00;1.00;;;;;5.47;70.05;99173.06;5034551;28;45421;-53
2021/12/08 07:58:53;;;;;;;;;1.00;1.00;;;;;5.47;71.18;99183.09;5034383;28;45523;-54
2021/12/08 08:01:22;;;;;;;;;2.00;2.00;;;;;5.35;70.68;99155.75;5017255;28;45427;-57
2021/12/08 08:03:48;;;;;;;;;4.00;2.00;;;;;5.50;71.27;99177.25;5033848;28;45517;-58
2021/12/08 08:06:22;;;;;;;;;4.00;3.50;;;;;5.36;70.63;99154.69;5033100;28;45503;-56
2021/12/08 08:08:48;;;;;;;;;4.00;1.40;;;;;5.53;71.13;99177.66;5032517;28;45582;-58
2021/12/08 08:11:20;;;;;;;;;4.00;0.00;;;;;5.43;70.85;99166.38;5014575;28;45434;-60
2021/12/08 08:13:45;;;;;;;;;2.00;0.60;;;;;5.42;71.59;99157.41;5015070;28;45335;-53
2021/12/08 08:16:14;;;;;;;;;4.50;1.25;;;;;5.40;71.06;99164.09;5014540;28;45514;-51
2021/12/08 08:18:42;;;;;;;;;2.00;1.00;;;;;5.46;70.63;99178.72;5029691;28;45322;-57
2021/12/08 08:21:10;;;;;;;;;2.00;1.00;;;;;5.48;71.37;99177.44;5013328;28;45402;-55
2021/12/08 08:23:35;;;;;;;;;3.80;1.00;;;;;5.36;70.81;99160.97;5023314;28;45469;-51
2021/12/08 08:26:02;;;;;;;;;1.50;1.25;;;;;5.45;71.53;99171.59;5029325;28;45493;-57
2021/12/08 08:28:27;;;;;;;;;5.80;1.80;;;;;5.42;71.80;99164.72;5048122;28;45636;-59
2021/12/08 08:31:26;;;;;;;;;3.00;3.00;;;;;5.52;70.76;99180.56;5034371;28;45571;-57
2021/12/08 08:33:52;;;;;;;;;1.60;1.60;;;;;5.37;70.98;99167.25;5034315;28;45322;-57
2021/12/08 08:36:22;;;;;;;;;1.25;0.50;;;;;5.50;70.88;99191.66;5033860;28;46431;-59
2021/12/08 08:38:52;;;;;;;;;3.20;2.40;;;;;5.42;70.78;99181.88;5032835;28;45950;-57
2021/12/08 08:41:21;;;;;;;;;1.60;1.60;;;;;5.52;71.02;99189.59;5033509;28;45321;-54
2021/12/08 08:43:48;;;;;;;;;1.00;1.00;;;;;5.55;71.35;99197.31;5034643;28;45303;-52
2021/12/08 08:46:24;;;;;;;;;2.40;1.00;;;;;5.59;71.51;99194.97;5032540;28;45495;-55
2021/12/08 08:49:00;;;;;;;;;1.80;1.20;;;;;5.64;70.86;99191.59;5032620;28;45524;-54
2021/12/08 08:51:32;;;;;;;;;1.00;1.00;;;;;5.69;70.72;99200.81;5033195;28;45364;-52
2021/12/08 08:54:01;;;;;;;;;4.60;4.60;;;;;5.69;70.61;99195.34;5034572;28;45604;-52
2021/12/08 08:56:33;;;;;;;;;2.00;2.00;;;;;5.61;70.60;99171.09;5034020;28;46566;-55
2021/12/08 08:59:05;;;;;;;;;1.20;1.20;;;;;5.71;70.57;99189.69;5033866;28;45371;-53
2021/12/08 09:01:33;;;;;;;;;0.00;0.00;;;;;5.68;69.75;99190.13;5053033;28;45410;-58
2021/12/08 09:04:06;;;;;;;;;1.00;1.00;;;;;5.65;69.97;99185.13;5036162;28;45498;-58
2021/12/08 09:06:35;;;;;;;;;1.60;1.00;;;;;5.65;69.62;99194.13;5036016;28;45413;-56
2021/12/08 09:09:03;;;;;;;;;4.20;1.60;;;;;5.68;70.46;99198.28;5035949;28;45492;-57
2021/12/08 09:11:35;;;;;;;;;0.40;0.40;;;;;5.67;70.27;99200.16;5017496;28;45417;-54
2021/12/08 09:14:01;;;;;;;;;0.80;0.80;;;;;5.61;69.67;99187.41;5015667;28;45424;-55
2021/12/08 09:16:33;;;;;;;;;1.60;0.80;;;;;5.09;70.09;99119.44;5017418;28;46169;-60
2021/12/08 09:19:06;;;;;;;;;4.40;2.40;;;;;5.70;70.23;99207.91;5015801;28;45430;-56
2021/12/08 09:21:40;;;;;;;;;1.00;1.00;;;;;5.65;69.02;99212.34;5017474;28;45321;-55
2021/12/08 09:24:11;;;;;;;;;1.40;0.00;;;;;5.69;69.72;99224.47;4998903;28;45382;-60
2021/12/08 09:26:42;;;;;;;;;1.40;1.40;;;;;5.66;68.94;99225.72;5012209;28;46635;-54
2021/12/08 09:29:17;;;;;;;;;1.40;1.40;;;;;5.42;69.38;99191.94;5016027;28;45750;-60
2021/12/08 09:32:07;;;;;;;;;1.00;1.00;;;;;5.61;68.66;99232.88;5017476;28;45453;-58
2021/12/08 09:34:39;;;;;;;;;0.80;0.80;;;;;5.51;69.21;99211.56;5017106;28;45343;-58
2021/12/08 09:37:08;;;;;;;;;2.00;1.00;;;;;5.65;69.68;99236.84;5015455;28;45548;-58
2021/12/08 09:39:44;;;;;;;;;1.80;1.00;;;;;5.64;68.92;99236.00;5015742;28;45446;-60
2021/12/08 09:42:27;;;;;;;;;1.40;1.40;;;;;5.66;69.29;99233.06;5015470;28;45380;-59
2021/12/08 09:45:03;;;;;;;;;2.60;0.80;;;;;5.63;69.25;99225.31;5015885;28;45379;-57
2021/12/08 09:47:29;;;;;;;;;2.40;0.00;;;;;5.75;69.96;99239.06;5015268;28;46271;-55
2021/12/08 09:49:58;;;;;;;;;0.75;0.75;;;;;5.73;69.04;99239.31;5015686;28;45264;-60
2021/12/08 09:52:27;;;;;;;;;1.60;0.40;;;;;5.57;69.40;99211.53;5015780;28;45438;-58
2021/12/08 09:54:53;;;;;;;;;2.80;1.00;;;;;5.72;69.27;99234.94;5016858;28;45426;-57
2021/12/08 09:57:18;;;;;;;;;1.00;1.00;;;;;5.80;69.77;99242.00;5015237;28;46937;-57
2021/12/08 09:59:47;;;;;;;;;12.25;1.50;;;;;5.76;69.50;99224.44;5031598;28;45601;-59
2021/12/08 10:02:25;;;;;;;;;2.00;2.00;;;;;5.82;68.67;99227.09;5016614;28;45423;-57
2021/12/08 10:04:51;;;;;;;;;4.20;2.00;;;;;5.89;69.10;99227.09;5016052;28;45790;-57
2021/12/08 10:07:16;;;;;;;;;2.50;0.75;;;;;5.92;68.82;99220.38;5015678;28;45436;-55
2021/12/08 10:09:42;;;;;;;;;1.00;1.00;;;;;5.93;68.83;99219.31;4998471;28;45551;-57
2021/12/08 10:12:08;;;;;;;;;4.50;2.00;;;;;5.94;68.28;99218.25;4998849;28;45394;-57
2021/12/08 10:14:34;;;;;;;;;1.40;1.00;;;;;5.91;68.76;99210.50;5015498;28;45488;-60
2021/12/08 10:17:00;;;;;;;;;3.20;0.80;;;;;5.97;69.42;99212.34;5031437;28;47773;-59
2021/12/08 10:19:25;;;;;;;;;4.00;1.25;;;;;5.94;68.46;99188.28;5016705;28;45410;-55
2021/12/08 10:21:51;;;;;;;;;1.00;1.00;;;;;6.06;68.64;99202.06;4998780;28;45318;-60
2021/12/08 10:24:23;;;;;;;;;1.00;1.00;;;;;6.09;68.65;99199.75;5016655;28;45370;-54
2021/12/08 10:26:50;;;;;;;;;0.20;0.00;;;;;6.08;68.38;99214.41;5016197;28;45411;-59
2021/12/08 10:29:24;;;;;;;;;1.60;1.60;;;;;6.14;67.67;99230.94;5016235;28;45398;-60
2021/12/08 10:31:53;;;;;;;;;1.00;1.00;;;;;5.99;67.36;99214.88;5015163;28;45381;-59
2021/12/08 10:36:48;;;;;;;;;1.00;1.00;;;;;6.19;67.37;99223.78;5015980;28;46463;-60
2021/12/08 10:39:16;;;;;;;;;2.00;1.60;;;;;6.25;67.40;99211.16;5031375;28;45268;-54
2021/12/08 10:42:26;;;;;;;;;1.20;0.00;;;;;6.37;67.41;99217.56;5014515;28;45246;-57
2021/12/08 10:47:36;;;;;;;;;1.80;1.00;;;;;6.57;66.30;99213.81;5007256;28;45736;-60
2021/12/08 10:55:21;;;;;;;;;1.40;1.00;;;;;6.70;64.12;99209.31;5035105;28;45465;-57
2021/12/08 10:57:49;;;;;;;;;1.80;0.80;;;;;6.73;64.77;99206.16;5036044;28;45467;-59
2021/12/08 11:00:40;;;;;;;;;3.00;1.00;;;;;6.76;64.94;99212.00;5008305;28;45493;-58
2021/12/08 11:03:08;;;;;;;;;0.00;0.00;;;;;6.77;64.80;99205.47;5011068;28;45667;-59
2021/12/08 11:05:43;;;;;;;;;1.60;0.60;;;;;6.76;63.56;99200.25;5014828;28;45376;-60
2021/12/08 11:08:29;;;;;;;;;1.80;1.20;;;;;6.82;64.53;99210.25;4998578;28;45711;-63
2021/12/08 11:11:05;;;;;;;;;1.00;1.00;;;;;6.92;64.72;99223.38;5015586;28;45228;-60
2021/12/08 11:13:39;;;;;;;;;4.60;1.40;;;;;6.96;64.13;99229.22;5015176;28;45307;-55
2021/12/08 11:16:13;;;;;;;;;1.20;0.00;;;;;6.93;63.47;99216.84;5001328;28;45411;-58
2021/12/08 11:18:40;;;;;;;;;1.80;1.00;;;;;7.07;64.31;99228.47;5006259;28;45715;-57
2021/12/08 11:21:15;;;;;;;;;1.80;0.80;;;;;7.30;63.94;99227.78;4985842;28;45534;-61
2021/12/08 11:23:46;;;;;;;;;5.60;3.80;;;;;8.72;60.91;99220.34;5013919;28;45298;-54
2021/12/08 11:26:11;;;;;;;;;1.40;0.60;;;;;13.01;51.68;99215.25;5014034;28;45399;-63
2021/12/08 11:28:37;;;;;;;;;1.00;1.00;;;;;16.72;41.08;99201.63;5015273;28;45429;-58
2021/12/08 11:31:09;;;;;;;;;1.00;1.00;;;;;19.03;37.59;99192.47;5015568;28;45454;-59
2021/12/08 11:33:41;;;;;;;;;1.00;1.00;;;;;16.86;39.62;99188.75;5014180;28;45501;-59
2021/12/08 11:36:16;;;;;;;;;0.00;0.00;;;;;14.50;43.81;99194.81;5015648;28;45332;-62
2021/12/08 11:38:42;;;;;;;;;2.00;1.00;;;;;12.86;46.50;99170.00;5014872;28;46547;-56
2021/12/08 11:41:29;;;;;;;;;4.60;2.20;;;;;12.02;49.09;99195.16;5013399;28;45464;-59
2021/12/08 11:43:56;;;;;;;;;1.80;1.00;;;;;11.02;51.51;99179.69;4955712;28;46231;-53
2021/12/08 11:46:22;;;;;;;;;6.00;2.00;;;;;10.54;51.87;99215.75;5005406;28;45550;-61
2021/12/08 11:49:03;;;;;;;;;2.00;1.25;;;;;10.09;53.86;99215.50;4996552;28;46673;-58
2021/12/08 11:51:32;;;;;;;;;2.00;0.40;;;;;9.73;54.02;99217.59;4990044;28;45962;-58
2021/12/08 11:53:59;;;;;;;;;1.00;1.00;;;;;9.36;55.24;99200.41;5024365;28;45726;-62
2021/12/08 11:56:38;;;;;;;;;1.20;0.80;;;;;8.97;55.97;99183.72;5009603;28;45406;-55
2021/12/08 11:59:05;;;;;;;;;1.60;1.60;;;;;9.03;57.03;99222.97;5009253;28;48046;-62
2021/12/08 12:01:31;;;;;;;;;2.00;2.00;;;;;8.95;57.72;99226.88;5010180;28;45484;-55
2021/12/08 12:03:56;;;;;;;;;2.00;0.75;;;;;8.82;58.06;99222.50;5009509;28;45528;-61
2021/12/08 12:06:27;;;;;;;;;1.00;1.00;;;;;8.43;58.43;99173.66;5013374;28;45726;-60
2021/12/08 12:08:55;;;;;;;;;0.20;0.00;;;;;8.80;58.44;99230.09;5029266;28;46599;-61
2021/12/08 12:11:24;;;;;;;;;1.20;0.60;;;;;8.47;58.11;99188.56;5012765;28;45763;-61
2021/12/08 12:13:50;;;;;;;;;6.80;3.00;;;;;8.59;59.18;99196.78;4999868;28;45823;-59
2021/12/08 12:16:15;;;;;;;;;3.50;1.25;;;;;8.84;58.95;99224.97;5009459;28;45351;-55
2021/12/08 12:18:41;;;;;;;;;3.00;2.00;;;;;8.80;58.51;99230.94;5012549;28;46068;-57
2021/12/08 12:21:21;;;;;;;;;3.00;2.00;;;;;8.65;59.88;99216.91;5028974;28;45791;-63
2021/12/08 12:24:09;;;;;;;;;2.40;1.60;;;;;8.68;59.99;99224.63;5028781;28;45921;-62
2021/12/08 12:26:40;;;;;;;;;1.40;1.40;;;;;8.62;59.18;99233.78;5027913;28;45687;-62
2021/12/08 12:29:21;;;;;;;;;2.20;1.60;;;;;8.48;60.15;99230.41;5030255;28;45517;-62
2021/12/08 12:32:05;;;;;;;;;7.80;3.00;;;;;8.42;59.80;99232.16;5027206;28;45805;-60
2021/12/08 12:34:32;;;;;;;;;5.40;2.00;;;;;8.32;59.94;99234.66;5024044;28;45492;-62
2021/12/08 12:36:59;;;;;;;;;4.20;1.60;;;;;8.34;59.45;99257.13;5032226;28;45700;-65
2021/12/08 12:39:28;;;;;;;;;3.00;2.00;;;;;8.02;60.12;99221.84;5015383;28;45503;-59
2021/12/08 12:41:57;;;;;;;;;1.20;1.20;;;;;8.25;59.94;99256.59;5002891;28;45730;-62
2021/12/08 12:44:25;;;;;;;;;0.80;0.80;;;;;8.27;60.82;99254.47;5012454;28;45843;-54
2021/12/08 12:47:08;;;;;;;;;4.40;1.00;;;;;8.07;60.43;99236.47;5011108;28;45627;-67
2021/12/08 12:49:35;;;;;;;;;1.00;1.00;;;;;8.25;60.77;99264.81;4996060;28;45951;-62